Time;durP1;ratioP1;P1;durP2;ratioP2;P2;SDS_P1;SDS_P2;PMS_P1;PMS_P2;Temp;Humidity;BMP_temperature;BMP_pressure;BME280_temperature;BME280_humidity;BME280_pressure;Samples;Min_cycle;Max_cycle;Signal;HPM_P1;HPM_P2
2022/06/16 00:00:49;;;;;;;;;;;;;;;;;;4333336;33;19935;-68
2022/06/16 00:03:14;;;;;;;;;;;;;;;;;;4319120;33;19939;-69
2022/06/16 00:05:39;;;;;;;;;;;;;;;;;;4332938;33;19954;-68
2022/06/16 00:08:04;;;;;;;;;;;;;;;;;;4332852;33;19986;-68
2022/06/16 00:10:29;;;;;;;;;;;;;;;;;;4332641;33;20333;-68
2022/06/16 00:12:54;;;;;;;;;;;;;;;;;;4331130;33;19954;-68
2022/06/16 00:15:19;;;;;;;;;;;;;;;;;;4332978;33;19935;-69
2022/06/16 00:17:45;;;;;;;;;;;;;;;;;;4332903;33;19968;-69
2022/06/16 00:20:11;;;;;;;;;;;;;;;;;;4319372;33;19970;-69
2022/06/16 00:22:36;;;;;;;;;;;;;;;;;;4330909;33;19982;-68
2022/06/16 00:25:01;;;;;;;;;;;;;;;;;;4318898;33;20019;-69
2022/06/16 00:27:26;;;;;;;;;;;;;;;;;;4330470;33;19939;-69
2022/06/16 00:29:51;;;;;;;;;;;;;;;;;;4331138;33;20306;-68
2022/06/16 00:32:16;;;;;;;;;;;;;;;;;;4332015;33;19981;-69
2022/06/16 00:34:41;;;;;;;;;;;;;;;;;;4332818;33;19945;-69
2022/06/16 00:37:06;;;;;;;;;;;;;;;;;;4332396;33;19979;-68
2022/06/16 00:39:31;;;;;;;;;;;;;;;;;;4340487;27;19935;-76
2022/06/16 00:41:57;;;;;;;;;;;;;;;;;;4331644;33;19935;-76
2022/06/16 00:44:22;;;;;;;;;;;;;;;;;;4331369;33;19947;-76
2022/06/16 00:46:47;;;;;;;;;;;;;;;;;;4331076;33;19931;-76
2022/06/16 00:49:12;;;;;;;;;;;;;;;;;;4331061;33;19939;-76
2022/06/16 00:51:38;;;;;;;;;;;;;;;;;;4332408;33;19996;-76
2022/06/16 00:54:03;;;;;;;;;;;;;;;;;;4331174;33;19955;-76
2022/06/16 00:56:28;;;;;;;;;;;;;;;;;;4316366;33;20352;-76
2022/06/16 00:58:53;;;;;;;;;;;;;;;;;;4301851;33;20271;-76
2022/06/16 01:01:18;;;;;;;;;;;;;;;;;;4302131;33;20266;-76
2022/06/16 01:06:27;;;;;;;;;;;;;;;;;;4302159;33;19979;-76
2022/06/16 01:08:53;;;;;;;;;;;;;;;;;;4301693;33;19943;-76
2022/06/16 01:13:41;;;;;;;;;;;;;;;;;;4302136;33;20270;-76
2022/06/16 01:14:03;;;;;;;;;;;;;;;;;;4302234;33;19927;-76
2022/06/16 01:16:28;;;;;;;;;;;;;;;;;;4301967;33;19950;-76
2022/06/16 01:18:53;;;;;;;;;;;;;;;;;;4303217;33;19958;-76
2022/06/16 01:21:18;;;;;;;;;;;;;;;;;;4301615;33;20306;-76
2022/06/16 01:23:44;;;;;;;;;;;;;;;;;;4301601;33;19992;-76
2022/06/16 01:26:09;;;;;;;;;;;;;;;;;;4308529;33;19935;-76
2022/06/16 01:28:34;;;;;;;;;;;;;;;;;;4316406;33;19974;-76
2022/06/16 01:30:59;;;;;;;;;;;;;;;;;;4316935;33;20021;-76
2022/06/16 01:33:24;;;;;;;;;;;;;;;;;;4327143;33;19943;-76
2022/06/16 01:35:50;;;;;;;;;;;;;;;;;;4316144;33;20025;-76
2022/06/16 01:38:15;;;;;;;;;;;;;;;;;;4316073;33;19940;-76
2022/06/16 01:40:40;;;;;;;;;;;;;;;;;;4317145;33;19935;-76
2022/06/16 01:43:06;;;;;;;;;;;;;;;;;;4316418;33;19939;-76
2022/06/16 01:45:31;;;;;;;;;;;;;;;;;;4318775;33;19949;-76
2022/06/16 01:47:56;;;;;;;;;;;;;;;;;;4318134;33;19982;-76
2022/06/16 01:50:21;;;;;;;;;;;;;;;;;;4319996;33;19963;-76
2022/06/16 01:52:47;;;;;;;;;;;;;;;;;;4318567;33;19951;-76
2022/06/16 01:55:12;;;;;;;;;;;;;;;;;;4319514;33;19935;-76
2022/06/16 01:57:37;;;;;;;;;;;;;;;;;;4319382;33;20038;-76
2022/06/16 02:00:02;;;;;;;;;;;;;;;;;;4316767;33;19935;-77
2022/06/16 02:02:27;;;;;;;;;;;;;;;;;;4305032;33;19998;-76
2022/06/16 02:04:53;;;;;;;;;;;;;;;;;;4304681;33;20278;-76
2022/06/16 02:07:18;;;;;;;;;;;;;;;;;;4304617;33;19953;-76
2022/06/16 02:09:43;;;;;;;;;;;;;;;;;;4304200;33;19943;-76
2022/06/16 02:12:08;;;;;;;;;;;;;;;;;;4317469;33;19943;-76
2022/06/16 02:14:33;;;;;;;;;;;;;;;;;;4319457;33;19940;-76
2022/06/16 02:16:58;;;;;;;;;;;;;;;;;;4314449;33;19948;-76
2022/06/16 02:19:23;;;;;;;;;;;;;;;;;;4318895;33;19940;-76
2022/06/16 02:21:49;;;;;;;;;;;;;;;;;;4319788;33;19950;-76
2022/06/16 02:24:14;;;;;;;;;;;;;;;;;;4317308;33;19995;-76
2022/06/16 02:26:39;;;;;;;;;;;;;;;;;;4318335;33;20432;-76
2022/06/16 02:29:10;;;;;;;;;;;;;;;;;;4318794;33;19974;-76
2022/06/16 02:31:35;;;;;;;;;;;;;;;;;;4318213;33;19969;-76
2022/06/16 02:34:00;;;;;;;;;;;;;;;;;;4319550;33;19971;-76
2022/06/16 02:36:25;;;;;;;;;;;;;;;;;;4318875;33;19954;-76
2022/06/16 02:39:00;;;;;;;;;;;;;;;;;;4318384;33;19950;-76
2022/06/16 02:41:35;;;;;;;;;;;;;;;;;;;;;
2022/06/16 02:49:31;;;;;;;;;;;;;;;;;;4258892;33;19981;-76
2022/06/16 03:03:04;;;;;;;;;;;;;;;;;;4256098;33;19933;-75
2022/06/16 03:05:29;;;;;;;;;;;;;;;;;;4318418;33;20258;-75
2022/06/16 03:08:40;;;;;;;;;;;;;;;;;;4318074;33;19936;-76
2022/06/16 03:10:52;;;;;;;;;;;;;;;;;;4307574;33;19962;-76
2022/06/16 03:13:24;;;;;;;;;;;;;;;;;;4317615;33;19944;-75
2022/06/16 03:15:49;;;;;;;;;;;;;;;;;;4318160;33;19978;-75
2022/06/16 03:18:14;;;;;;;;;;;;;;;;;;4318029;33;19943;-75
2022/06/16 03:20:40;;;;;;;;;;;;;;;;;;4317911;33;19971;-75
2022/06/16 03:23:05;;;;;;;;;;;;;;;;;;4318219;33;20310;-75
2022/06/16 03:25:30;;;;;;;;;;;;;;;;;;4317102;33;20376;-75
2022/06/16 03:27:55;;;;;;;;;;;;;;;;;;4317551;33;19950;-77
2022/06/16 03:30:20;;;;;;;;;;;;;;;;;;4317693;33;19939;-77
2022/06/16 03:32:46;;;;;;;;;;;;;;;;;;4317358;33;19975;-77
2022/06/16 03:35:11;;;;;;;;;;;;;;;;;;4318139;33;19962;-77
2022/06/16 03:37:36;;;;;;;;;;;;;;;;;;4317371;33;19939;-77
2022/06/16 03:40:01;;;;;;;;;;;;;;;;;;4315886;33;19936;-77
2022/06/16 03:42:27;;;;;;;;;;;;;;;;;;4316081;33;19935;-77
2022/06/16 03:45:02;;;;;;;;;;;;;;;;;;;;;
2022/06/16 03:58:30;;;;;;;;;;;;;;;;;;4317429;33;19961;-76
2022/06/16 04:00:55;;;;;;;;;;;;;;;;;;4316797;33;20322;-76
2022/06/16 04:11:45;;;;;;;;;;;;;;;;;;4317817;33;20275;-76
2022/06/16 04:14:11;;;;;;;;;;;;;;;;;;4317336;33;19994;-76
2022/06/16 04:16:36;;;;;;;;;;;;;;;;;;4317500;33;19935;-76
2022/06/16 04:19:08;;;;;;;;;;;;;;;;;;4317286;33;19935;-76
2022/06/16 04:21:41;;;;;;;;;;;;;;;;;;4317348;33;20338;-76
2022/06/16 04:24:06;;;;;;;;;;;;;;;;;;4317308;33;19979;-76
2022/06/16 04:26:33;;;;;;;;;;;;;;;;;;4303014;33;20240;-75
2022/06/16 04:28:58;;;;;;;;;;;;;;;;;;4300954;33;20370;-76
2022/06/16 04:31:24;;;;;;;;;;;;;;;;;;4302021;33;19936;-77
2022/06/16 04:33:58;;;;;;;;;;;;;;;;;;4301969;33;20328;-76
2022/06/16 04:36:24;;;;;;;;;;;;;;;;;;4300814;33;19944;-76
2022/06/16 04:38:54;;;;;;;;;;;;;;;;;;4301741;33;19999;-76
2022/06/16 04:41:19;;;;;;;;;;;;;;;;;;4302252;33;20348;-75
2022/06/16 04:43:48;;;;;;;;;;;;;;;;;;4302205;33;19936;-77
2022/06/16 04:46:22;;;;;;;;;;;;;;;;;;4300615;33;19940;-76
2022/06/16 04:48:48;;;;;;;;;;;;;;;;;;4302469;33;19939;-76
2022/06/16 04:51:15;;;;;;;;;;;;;;;;;;4302669;33;20326;-76
2022/06/16 04:53:41;;;;;;;;;;;;;;;;;;4301712;33;20006;-76
2022/06/16 04:58:57;;;;;;;;;;;;;;;;;;4316961;33;19930;-76
2022/06/16 05:01:22;;;;;;;;;;;;;;;;;;4316634;33;19935;-76
2022/06/16 05:03:48;;;;;;;;;;;;;;;;;;4316278;33;20364;-76
2022/06/16 05:06:13;;;;;;;;;;;;;;;;;;4316795;33;19936;-76
2022/06/16 05:08:38;;;;;;;;;;;;;;;;;;4316547;33;19944;-76
2022/06/16 05:11:15;;;;;;;;;;;;;;;;;;4316565;33;20373;-76
2022/06/16 05:13:49;;;;;;;;;;;;;;;;;;4316580;33;20017;-76
2022/06/16 05:19:08;;;;;;;;;;;;;;;;;;4320333;33;20360;-76
2022/06/16 05:21:46;;;;;;;;;;;;;;;;;;;;;
2022/06/16 05:27:03;;;;;;;;;;;;;;;;;;4319715;33;19939;-76
2022/06/16 05:29:39;;;;;;;;;;;;;;;;;;;;;
2022/06/16 05:32:07;;;;;;;;;;;;;;;;;;4317579;33;19958;-77
2022/06/16 05:34:33;;;;;;;;;;;;;;;;;;4319194;33;19950;-76
2022/06/16 05:36:58;;;;;;;;;;;;;;;;;;4319185;33;19944;-77
2022/06/16 05:39:24;;;;;;;;;;;;;;;;;;4318801;33;19940;-76
2022/06/16 05:41:49;;;;;;;;;;;;;;;;;;4318737;33;19936;-78
2022/06/16 05:44:14;;;;;;;;;;;;;;;;;;4319097;33;19940;-75
2022/06/16 05:46:40;;;;;;;;;;;;;;;;;;4319342;33;19939;-76
2022/06/16 05:49:05;;;;;;;;;;;;;;;;;;4316438;33;19954;-76
2022/06/16 05:51:30;;;;;;;;;;;;;;;;;;4318766;33;19946;-76
2022/06/16 05:53:55;;;;;;;;;;;;;;;;;;4317586;33;19970;-73
2022/06/16 05:56:20;;;;;;;;;;;;;;;;;;4305333;33;20392;-76
2022/06/16 05:58:46;;;;;;;;;;;;;;;;;;4304009;33;19948;-77
2022/06/16 06:01:11;;;;;;;;;;;;;;;;;;4303294;33;20322;-76
2022/06/16 06:03:38;;;;;;;;;;;;;;;;;;4304176;33;19940;-76
2022/06/16 06:06:06;;;;;;;;;;;;;;;;;;4304215;33;19936;-76
2022/06/16 06:16:43;;;;;;;;;;;;;;;;;;4303906;33;19935;-77
2022/06/16 06:19:23;;;;;;;;;;;;;;;;;;4304414;33;19995;-75
2022/06/16 06:22:00;;;;;;;;;;;;;;;;;;4305253;33;19936;-76
2022/06/16 06:24:34;;;;;;;;;;;;;;;;;;4322062;33;20108;-76
2022/06/16 06:27:00;;;;;;;;;;;;;;;;;;4333441;33;19973;-75
2022/06/16 06:29:25;;;;;;;;;;;;;;;;;;4332056;33;19939;-76
2022/06/16 06:31:50;;;;;;;;;;;;;;;;;;4333097;33;19975;-77
2022/06/16 06:34:15;;;;;;;;;;;;;;;;;;4333354;33;20265;-76
2022/06/16 06:36:43;;;;;;;;;;;;;;;;;;4332991;33;20242;-76
2022/06/16 06:39:08;;;;;;;;;;;;;;;;;;4332515;33;19978;-76
2022/06/16 06:41:33;;;;;;;;;;;;;;;;;;4332570;33;19939;-77
2022/06/16 06:43:59;;;;;;;;;;;;;;;;;;4332804;33;19945;-76
2022/06/16 06:46:24;;;;;;;;;;;;;;;;;;4332800;33;19954;-76
2022/06/16 06:48:49;;;;;;;;;;;;;;;;;;4333018;33;20512;-76
2022/06/16 06:51:22;;;;;;;;;;;;;;;;;;4332832;33;19946;-76
2022/06/16 06:54:00;;;;;;;;;;;;;;;;;;;;;
2022/06/16 06:56:26;;;;;;;;;;;;;;;;;;4332728;33;19943;-76
2022/06/16 06:58:51;;;;;;;;;;;;;;;;;;4332553;33;19954;-76
2022/06/16 07:01:17;;;;;;;;;;;;;;;;;;4330569;33;19947;-76
2022/06/16 07:03:42;;;;;;;;;;;;;;;;;;4332264;33;20277;-77
2022/06/16 07:06:07;;;;;;;;;;;;;;;;;;4333126;33;19958;-77
2022/06/16 07:08:33;;;;;;;;;;;;;;;;;;4332537;33;19957;-76
2022/06/16 07:10:59;;;;;;;;;;;;;;;;;;4318540;33;20269;-77
2022/06/16 07:13:24;;;;;;;;;;;;;;;;;;4332574;33;19973;-77
2022/06/16 07:15:49;;;;;;;;;;;;;;;;;;4332017;33;20266;-76
2022/06/16 07:18:15;;;;;;;;;;;;;;;;;;4332399;33;20294;-76
2022/06/16 07:20:40;;;;;;;;;;;;;;;;;;4331900;33;20399;-76
2022/06/16 07:23:05;;;;;;;;;;;;;;;;;;4331705;33;19987;-77
2022/06/16 07:25:30;;;;;;;;;;;;;;;;;;4332094;33;20361;-77
2022/06/16 07:27:56;;;;;;;;;;;;;;;;;;4332758;33;19973;-77
2022/06/16 07:30:24;;;;;;;;;;;;;;;;;;4331908;33;19949;-76
2022/06/16 07:32:49;;;;;;;;;;;;;;;;;;4326034;33;19948;-77
2022/06/16 07:35:14;;;;;;;;;;;;;;;;;;4317209;33;20373;-77
2022/06/16 07:37:40;;;;;;;;;;;;;;;;;;4317218;33;19985;-77
2022/06/16 07:40:05;;;;;;;;;;;;;;;;;;4316871;33;19936;-76
2022/06/16 07:42:30;;;;;;;;;;;;;;;;;;4317357;33;20327;-76
2022/06/16 07:44:55;;;;;;;;;;;;;;;;;;4317189;33;20310;-77
2022/06/16 07:47:20;;;;;;;;;;;;;;;;;;4317218;33;20026;-77
2022/06/16 07:49:48;;;;;;;;;;;;;;;;;;4317489;33;19951;-77
2022/06/16 07:52:14;;;;;;;;;;;;;;;;;;4317243;33;19939;-77
2022/06/16 07:54:39;;;;;;;;;;;;;;;;;;4317338;33;19947;-76
2022/06/16 07:57:04;;;;;;;;;;;;;;;;;;4317523;33;19946;-77
2022/06/16 07:59:29;;;;;;;;;;;;;;;;;;4317246;33;19939;-76
2022/06/16 08:01:54;;;;;;;;;;;;;;;;;;4316810;33;19939;-76
2022/06/16 08:04:19;;;;;;;;;;;;;;;;;;4316414;33;20052;-76
2022/06/16 08:06:44;;;;;;;;;;;;;;;;;;4317008;33;19970;-76
2022/06/16 08:09:11;;;;;;;;;;;;;;;;;;4304547;33;19995;-77
2022/06/16 08:14:20;;;;;;;;;;;;;;;;;;4317674;33;19962;-75
2022/06/16 08:16:45;;;;;;;;;;;;;;;;;;4317195;33;19940;-75
2022/06/16 08:19:11;;;;;;;;;;;;;;;;;;4317175;33;20018;-75
2022/06/16 08:21:36;;;;;;;;;;;;;;;;;;4316491;33;19939;-77
2022/06/16 08:24:01;;;;;;;;;;;;;;;;;;4321100;33;20326;-77
2022/06/16 08:26:26;;;;;;;;;;;;;;;;;;4331324;33;19939;-77
2022/06/16 08:28:51;;;;;;;;;;;;;;;;;;4331050;33;19977;-77
2022/06/16 08:31:20;;;;;;;;;;;;;;;;;;4330930;33;20336;-76
2022/06/16 08:33:45;;;;;;;;;;;;;;;;;;4318971;33;19985;-77
2022/06/16 08:36:10;;;;;;;;;;;;;;;;;;4332042;33;19974;-77
2022/06/16 08:38:35;;;;;;;;;;;;;;;;;;4331667;33;19982;-77
2022/06/16 08:41:13;;;;;;;;;;;;;;;;;;4331184;33;20012;-77
2022/06/16 08:43:38;;;;;;;;;;;;;;;;;;4331226;33;20355;-78
2022/06/16 08:46:03;;;;;;;;;;;;;;;;;;4332412;33;19935;-77
2022/06/16 08:48:28;;;;;;;;;;;;;;;;;;4331320;33;19935;-77
2022/06/16 08:50:53;;;;;;;;;;;;;;;;;;4331469;33;19935;-78
2022/06/16 08:53:18;;;;;;;;;;;;;;;;;;4330340;33;19966;-76
2022/06/16 08:55:43;;;;;;;;;;;;;;;;;;4332096;33;19935;-78
2022/06/16 08:58:09;;;;;;;;;;;;;;;;;;4331523;33;19950;-76
2022/06/16 09:00:34;;;;;;;;;;;;;;;;;;4331652;33;19943;-74
2022/06/16 09:02:59;;;;;;;;;;;;;;;;;;4331360;33;19940;-77
2022/06/16 09:05:24;;;;;;;;;;;;;;;;;;4331162;33;19939;-77
2022/06/16 09:07:49;;;;;;;;;;;;;;;;;;4331300;33;19954;-77
2022/06/16 09:10:15;;;;;;;;;;;;;;;;;;4331473;33;19936;-77
2022/06/16 09:12:40;;;;;;;;;;;;;;;;;;4331004;33;19989;-76
2022/06/16 09:15:11;;;;;;;;;;;;;;;;;;4331302;33;20310;-77
2022/06/16 09:17:36;;;;;;;;;;;;;;;;;;4330912;33;19951;-76
2022/06/16 09:20:01;;;;;;;;;;;;;;;;;;4330746;33;19935;-76
2022/06/16 09:22:26;;;;;;;;;;;;;;;;;;4330926;33;19935;-77
2022/06/16 09:24:51;;;;;;;;;;;;;;;;;;4330128;33;19969;-76
2022/06/16 09:27:17;;;;;;;;;;;;;;;;;;4330919;33;19939;-76
2022/06/16 09:29:42;;;;;;;;;;;;;;;;;;4331273;33;19963;-77
2022/06/16 09:32:08;;;;;;;;;;;;;;;;;;4331476;33;20010;-77
2022/06/16 09:34:34;;;;;;;;;;;;;;;;;;4330922;33;19934;-77
2022/06/16 09:37:00;;;;;;;;;;;;;;;;;;4330817;33;19939;-77
2022/06/16 09:39:25;;;;;;;;;;;;;;;;;;4317118;33;20024;-77
2022/06/16 09:44:35;;;;;;;;;;;;;;;;;;4331154;33;19941;-77
2022/06/16 09:47:00;;;;;;;;;;;;;;;;;;4330863;33;19970;-77
2022/06/16 09:49:25;;;;;;;;;;;;;;;;;;4331822;33;19935;-77
2022/06/16 09:51:50;;;;;;;;;;;;;;;;;;4330644;33;20316;-76
2022/06/16 09:54:15;;;;;;;;;;;;;;;;;;4330174;33;19943;-78
2022/06/16 09:56:41;;;;;;;;;;;;;;;;;;4330182;33;20091;-77
2022/06/16 09:59:06;;;;;;;;;;;;;;;;;;4330573;33;19938;-76
2022/06/16 10:01:31;;;;;;;;;;;;;;;;;;4319053;33;19975;-77
2022/06/16 10:03:57;;;;;;;;;;;;;;;;;;4331585;33;20306;-77
2022/06/16 10:06:22;;;;;;;;;;;;;;;;;;4334254;33;19949;-76
2022/06/16 10:08:47;;;;;;;;;;;;;;;;;;4332995;33;19977;-76
2022/06/16 10:14:01;;;;;;;;;;;;;;;;;;4311018;33;20277;-76
2022/06/16 10:16:26;;;;;;;;;;;;;;;;;;4334368;33;19935;-77
2022/06/16 10:18:51;;;;;;;;;;;;;;;;;;4334595;33;19979;-73
2022/06/16 10:21:17;;;;;;;;;;;;;;;;;;4333880;33;19955;-77
2022/06/16 10:23:43;;;;;;;;;;;;;;;;;;4326764;33;19954;-76
2022/06/16 10:26:08;;;;;;;;;;;;;;;;;;4318495;33;19943;-76
2022/06/16 10:28:33;;;;;;;;;;;;;;;;;;4319249;33;19947;-76
2022/06/16 10:30:58;;;;;;;;;;;;;;;;;;4304894;33;19939;-76
2022/06/16 10:33:24;;;;;;;;;;;;;;;;;;4318141;33;19970;-77
2022/06/16 10:35:49;;;;;;;;;;;;;;;;;;4318040;33;19955;-76
2022/06/16 10:38:17;;;;;;;;;;;;;;;;;;4317997;33;19939;-76
2022/06/16 10:40:42;;;;;;;;;;;;;;;;;;4319130;33;19947;-76
2022/06/16 10:43:08;;;;;;;;;;;;;;;;;;4318802;33;20364;-76
2022/06/16 10:45:34;;;;;;;;;;;;;;;;;;4317909;33;19958;-77
2022/06/16 10:48:02;;;;;;;;;;;;;;;;;;4318940;33;19940;-77
2022/06/16 10:50:27;;;;;;;;;;;;;;;;;;4317902;33;19978;-74
2022/06/16 10:52:53;;;;;;;;;;;;;;;;;;4318173;33;19935;-76
2022/06/16 10:55:19;;;;;;;;;;;;;;;;;;4304357;33;19999;-76
2022/06/16 10:57:44;;;;;;;;;;;;;;;;;;4317887;33;19954;-76
2022/06/16 11:00:09;;;;;;;;;;;;;;;;;;4318845;33;19939;-77
2022/06/16 11:02:35;;;;;;;;;;;;;;;;;;4318464;33;19947;-76
2022/06/16 11:05:00;;;;;;;;;;;;;;;;;;4317851;33;20337;-76
2022/06/16 11:07:25;;;;;;;;;;;;;;;;;;4318496;33;19936;-77
2022/06/16 11:09:50;;;;;;;;;;;;;;;;;;4318351;33;19998;-77
2022/06/16 11:12:15;;;;;;;;;;;;;;;;;;4304527;33;19954;-76
2022/06/16 11:14:40;;;;;;;;;;;;;;;;;;4317812;33;19990;-76
2022/06/16 11:17:05;;;;;;;;;;;;;;;;;;4319354;33;19935;-76
2022/06/16 11:19:31;;;;;;;;;;;;;;;;;;4317902;33;19981;-77
2022/06/16 11:21:56;;;;;;;;;;;;;;;;;;4318602;33;19939;-77
2022/06/16 11:24:21;;;;;;;;;;;;;;;;;;4328640;33;19979;-76
2022/06/16 11:26:46;;;;;;;;;;;;;;;;;;4332619;33;19939;-76
2022/06/16 11:29:12;;;;;;;;;;;;;;;;;;4332289;33;19958;-74
2022/06/16 11:31:37;;;;;;;;;;;;;;;;;;4331968;33;19931;-77
2022/06/16 11:34:09;;;;;;;;;;;;;;;;;;4319433;33;19935;-77
2022/06/16 11:36:37;;;;;;;;;;;;;;;;;;4318645;33;19955;-78
2022/06/16 11:39:02;;;;;;;;;;;;;;;;;;4331648;33;19944;-78
2022/06/16 11:41:37;;;;;;;;;;;;;;;;;;;;;
2022/06/16 11:44:03;;;;;;;;;;;;;;;;;;4322772;33;19958;-77
2022/06/16 11:46:28;;;;;;;;;;;;;;;;;;4331991;33;20247;-77
2022/06/16 11:48:53;;;;;;;;;;;;;;;;;;4332320;33;19950;-77
2022/06/16 11:51:19;;;;;;;;;;;;;;;;;;4332128;33;20015;-77
2022/06/16 11:53:44;;;;;;;;;;;;;;;;;;4323768;33;20054;-77
2022/06/16 11:56:09;;;;;;;;;;;;;;;;;;4318567;33;19974;-78
2022/06/16 11:58:34;;;;;;;;;;;;;;;;;;4316921;33;19935;-77
2022/06/16 12:01:00;;;;;;;;;;;;;;;;;;4316913;33;19944;-77
2022/06/16 12:03:25;;;;;;;;;;;;;;;;;;4317281;33;20027;-77
2022/06/16 12:05:50;;;;;;;;;;;;;;;;;;4317178;33;19950;-77
2022/06/16 12:08:15;;;;;;;;;;;;;;;;;;4317021;33;19974;-77
2022/06/16 12:10:40;;;;;;;;;;;;;;;;;;4316955;33;20306;-77
2022/06/16 12:13:05;;;;;;;;;;;;;;;;;;4317297;33;19951;-77
2022/06/16 12:15:30;;;;;;;;;;;;;;;;;;4317334;33;20262;-77
2022/06/16 12:17:56;;;;;;;;;;;;;;;;;;4318255;33;19936;-79
2022/06/16 12:20:21;;;;;;;;;;;;;;;;;;4317196;33;20030;-77
2022/06/16 12:22:46;;;;;;;;;;;;;;;;;;4330320;33;19974;-78
2022/06/16 12:25:11;;;;;;;;;;;;;;;;;;4332962;33;19970;-77
2022/06/16 12:27:36;;;;;;;;;;;;;;;;;;4331836;33;19994;-78
2022/06/16 12:30:02;;;;;;;;;;;;;;;;;;4332005;33;20360;-78
2022/06/16 12:32:27;;;;;;;;;;;;;;;;;;4319409;33;19943;-77
2022/06/16 12:34:52;;;;;;;;;;;;;;;;;;4332119;33;19935;-77
2022/06/16 12:37:17;;;;;;;;;;;;;;;;;;4318854;33;20250;-78
2022/06/16 12:39:42;;;;;;;;;;;;;;;;;;4331572;33;20350;-77
2022/06/16 12:42:07;;;;;;;;;;;;;;;;;;4319403;33;19949;-77
2022/06/16 12:44:33;;;;;;;;;;;;;;;;;;4332981;33;19987;-77
2022/06/16 12:46:58;;;;;;;;;;;;;;;;;;4332435;33;20227;-77
2022/06/16 12:49:23;;;;;;;;;;;;;;;;;;4333624;33;19950;-77
2022/06/16 12:51:48;;;;;;;;;;;;;;;;;;4326105;33;20269;-77
2022/06/16 12:54:13;;;;;;;;;;;;;;;;;;4317675;33;20380;-77
2022/06/16 12:56:39;;;;;;;;;;;;;;;;;;4318475;33;20283;-78
2022/06/16 12:59:04;;;;;;;;;;;;;;;;;;4317795;33;20306;-77
2022/06/16 13:01:29;;;;;;;;;;;;;;;;;;4317302;33;20291;-78
2022/06/16 13:03:54;;;;;;;;;;;;;;;;;;4317328;33;20023;-77
2022/06/16 13:06:19;;;;;;;;;;;;;;;;;;4316815;33;20278;-78
2022/06/16 13:08:48;;;;;;;;;;;;;;;;;;4316597;33;20216;-78
2022/06/16 13:11:13;;;;;;;;;;;;;;;;;;4316259;33;19947;-77
2022/06/16 13:13:38;;;;;;;;;;;;;;;;;;4316834;33;19943;-78
2022/06/16 13:16:04;;;;;;;;;;;;;;;;;;4317710;33;19947;-77
2022/06/16 13:18:29;;;;;;;;;;;;;;;;;;4318684;33;19936;-77
2022/06/16 13:20:54;;;;;;;;;;;;;;;;;;4322384;33;20293;-77
2022/06/16 13:23:19;;;;;;;;;;;;;;;;;;4333786;33;20266;-77
2022/06/16 13:25:45;;;;;;;;;;;;;;;;;;4320541;33;19939;-76
2022/06/16 13:28:10;;;;;;;;;;;;;;;;;;4334016;33;19975;-77
2022/06/16 13:30:35;;;;;;;;;;;;;;;;;;4332189;33;19936;-78
2022/06/16 13:33:00;;;;;;;;;;;;;;;;;;4331286;33;19994;-77
2022/06/16 13:35:25;;;;;;;;;;;;;;;;;;4317418;33;19951;-78
2022/06/16 13:37:51;;;;;;;;;;;;;;;;;;4332862;33;20234;-77
2022/06/16 13:40:16;;;;;;;;;;;;;;;;;;4333312;33;19980;-77
2022/06/16 13:42:42;;;;;;;;;;;;;;;;;;4320396;33;20415;-78
2022/06/16 13:45:07;;;;;;;;;;;;;;;;;;4334317;33;19981;-77
2022/06/16 13:47:32;;;;;;;;;;;;;;;;;;4333883;33;19950;-77
2022/06/16 13:49:57;;;;;;;;;;;;;;;;;;4319958;33;19939;-77
2022/06/16 13:52:22;;;;;;;;;;;;;;;;;;4333111;33;19947;-77
2022/06/16 13:54:47;;;;;;;;;;;;;;;;;;4333142;33;19935;-77
2022/06/16 13:57:12;;;;;;;;;;;;;;;;;;4333365;33;19973;-78
2022/06/16 13:59:39;;;;;;;;;;;;;;;;;;4322912;33;19958;-78
2022/06/16 14:02:06;;;;;;;;;;;;;;;;;;4318852;33;19944;-77
2022/06/16 14:04:31;;;;;;;;;;;;;;;;;;4318529;33;19967;-76
2022/06/16 14:06:56;;;;;;;;;;;;;;;;;;4318360;33;19936;-77
2022/06/16 14:09:21;;;;;;;;;;;;;;;;;;4318594;33;19936;-78
2022/06/16 14:11:47;;;;;;;;;;;;;;;;;;4318451;33;19966;-76
2022/06/16 14:14:12;;;;;;;;;;;;;;;;;;4329532;33;20024;-77
2022/06/16 14:16:37;;;;;;;;;;;;;;;;;;4318756;33;19951;-77
2022/06/16 14:19:02;;;;;;;;;;;;;;;;;;4318849;33;19969;-77
2022/06/16 14:21:28;;;;;;;;;;;;;;;;;;4326586;33;19951;-77
2022/06/16 14:23:53;;;;;;;;;;;;;;;;;;4333430;33;20294;-77
2022/06/16 14:26:19;;;;;;;;;;;;;;;;;;4332635;33;19936;-77
2022/06/16 14:28:44;;;;;;;;;;;;;;;;;;4333003;33;20027;-77
2022/06/16 14:31:09;;;;;;;;;;;;;;;;;;4333011;33;20294;-77
2022/06/16 14:33:34;;;;;;;;;;;;;;;;;;4333382;33;20304;-74
2022/06/16 14:35:59;;;;;;;;;;;;;;;;;;4333110;33;19946;-77
2022/06/16 14:38:24;;;;;;;;;;;;;;;;;;4332312;33;19959;-77
2022/06/16 14:40:50;;;;;;;;;;;;;;;;;;4332764;33;19950;-76
2022/06/16 14:43:15;;;;;;;;;;;;;;;;;;4332487;33;20302;-77
2022/06/16 14:45:40;;;;;;;;;;;;;;;;;;4333271;33;19939;-76
2022/06/16 14:48:05;;;;;;;;;;;;;;;;;;4332693;33;19942;-77
2022/06/16 14:50:30;;;;;;;;;;;;;;;;;;4331527;33;19942;-77
2022/06/16 14:52:55;;;;;;;;;;;;;;;;;;4332861;33;19958;-77
2022/06/16 14:55:20;;;;;;;;;;;;;;;;;;4332848;33;19966;-77
2022/06/16 14:57:46;;;;;;;;;;;;;;;;;;4332941;33;19950;-77
2022/06/16 15:00:11;;;;;;;;;;;;;;;;;;4319191;33;20376;-77
2022/06/16 15:02:36;;;;;;;;;;;;;;;;;;4332647;33;20324;-76
2022/06/16 15:05:01;;;;;;;;;;;;;;;;;;4332861;33;19973;-76
2022/06/16 15:07:26;;;;;;;;;;;;;;;;;;4332351;33;19950;-77
2022/06/16 15:09:52;;;;;;;;;;;;;;;;;;4331850;33;19935;-76
2022/06/16 15:12:17;;;;;;;;;;;;;;;;;;4318940;33;19947;-77
2022/06/16 15:14:42;;;;;;;;;;;;;;;;;;4332496;33;19970;-77
2022/06/16 15:19:51;;;;;;;;;;;;;;;;;;4332105;33;19966;-76
2022/06/16 15:22:16;;;;;;;;;;;;;;;;;;4317502;33;19995;-75
2022/06/16 15:24:41;;;;;;;;;;;;;;;;;;4317644;33;19982;-76
2022/06/16 15:27:06;;;;;;;;;;;;;;;;;;4317766;33;20041;-76
2022/06/16 15:29:31;;;;;;;;;;;;;;;;;;4317192;33;20303;-76
2022/06/16 15:31:57;;;;;;;;;;;;;;;;;;4317478;33;19939;-76
2022/06/16 15:37:06;;;;;;;;;;;;;;;;;;4317351;33;20007;-77
2022/06/16 15:39:32;;;;;;;;;;;;;;;;;;4317570;33;19939;-76
2022/06/16 15:41:57;;;;;;;;;;;;;;;;;;4304012;33;20302;-77
2022/06/16 15:44:22;;;;;;;;;;;;;;;;;;4317001;33;19986;-76
2022/06/16 15:46:47;;;;;;;;;;;;;;;;;;4318327;33;19939;-77
2022/06/16 15:49:12;;;;;;;;;;;;;;;;;;4317861;33;19948;-77
2022/06/16 15:51:37;;;;;;;;;;;;;;;;;;4327685;33;19958;-77
2022/06/16 15:54:02;;;;;;;;;;;;;;;;;;4331916;33;19950;-76
2022/06/16 15:56:28;;;;;;;;;;;;;;;;;;4331391;33;19965;-75
2022/06/16 15:58:53;;;;;;;;;;;;;;;;;;4331789;33;19935;-76
2022/06/16 16:01:18;;;;;;;;;;;;;;;;;;4331724;33;20343;-76
2022/06/16 16:03:46;;;;;;;;;;;;;;;;;;4331859;33;20003;-77
2022/06/16 16:06:11;;;;;;;;;;;;;;;;;;4330895;33;19938;-77
2022/06/16 16:08:36;;;;;;;;;;;;;;;;;;4330970;33;19935;-76
2022/06/16 16:11:01;;;;;;;;;;;;;;;;;;4331295;33;19985;-75
2022/06/16 16:13:27;;;;;;;;;;;;;;;;;;4318668;33;20007;-76
2022/06/16 16:15:52;;;;;;;;;;;;;;;;;;4316661;33;19954;-76
2022/06/16 16:18:17;;;;;;;;;;;;;;;;;;4316839;33;20362;-76
2022/06/16 16:20:43;;;;;;;;;;;;;;;;;;4325253;33;20277;-76
2022/06/16 16:23:08;;;;;;;;;;;;;;;;;;4331023;33;20360;-76
2022/06/16 16:25:33;;;;;;;;;;;;;;;;;;4331376;33;19935;-76
2022/06/16 16:27:58;;;;;;;;;;;;;;;;;;4331359;33;19932;-76
2022/06/16 16:30:26;;;;;;;;;;;;;;;;;;4331089;33;19965;-75
2022/06/16 16:32:51;;;;;;;;;;;;;;;;;;4331243;33;19939;-76
2022/06/16 16:38:09;;;;;;;;;;;;;;;;;;4317101;33;19966;-76
2022/06/16 16:43:18;;;;;;;;;;;;;;;;;;4317264;33;19941;-77
2022/06/16 16:45:43;;;;;;;;;;;;;;;;;;4316900;33;19936;-76
2022/06/16 16:48:08;;;;;;;;;;;;;;;;;;4316733;33;20285;-76
2022/06/16 16:50:33;;;;;;;;;;;;;;;;;;4316697;33;19948;-76
2022/06/16 16:52:58;;;;;;;;;;;;;;;;;;4323308;33;19973;-77
2022/06/16 16:55:24;;;;;;;;;;;;;;;;;;4322767;33;19990;-76
2022/06/16 16:57:49;;;;;;;;;;;;;;;;;;4303919;33;19939;-76
2022/06/16 17:00:14;;;;;;;;;;;;;;;;;;4327897;33;19943;-76
2022/06/16 17:02:39;;;;;;;;;;;;;;;;;;4331392;33;19931;-76
2022/06/16 17:05:05;;;;;;;;;;;;;;;;;;4331470;33;19935;-76
2022/06/16 17:07:33;;;;;;;;;;;;;;;;;;4317597;33;19932;-76
2022/06/16 17:09:58;;;;;;;;;;;;;;;;;;4330709;33;19973;-76
2022/06/16 17:12:23;;;;;;;;;;;;;;;;;;4317496;33;19940;-75
2022/06/16 17:14:48;;;;;;;;;;;;;;;;;;4334366;33;19935;-75
2022/06/16 17:17:13;;;;;;;;;;;;;;;;;;4329263;33;20046;-76
2022/06/16 17:19:39;;;;;;;;;;;;;;;;;;4307640;33;19978;-76
2022/06/16 17:22:04;;;;;;;;;;;;;;;;;;4334495;33;19973;-77
2022/06/16 17:24:29;;;;;;;;;;;;;;;;;;4334050;33;19986;-76
2022/06/16 17:26:54;;;;;;;;;;;;;;;;;;4333660;33;19946;-76
2022/06/16 17:29:20;;;;;;;;;;;;;;;;;;4333307;33;19951;-76
2022/06/16 17:31:45;;;;;;;;;;;;;;;;;;4333438;33;19991;-78
2022/06/16 17:34:10;;;;;;;;;;;;;;;;;;4327213;33;19995;-76
2022/06/16 17:36:35;;;;;;;;;;;;;;;;;;4319311;33;20350;-76
2022/06/16 17:39:10;;;;;;;;;;;;;;;;;;4318415;33;20287;-77
2022/06/16 17:41:35;;;;;;;;;;;;;;;;;;4305706;33;19946;-77
2022/06/16 17:44:00;;;;;;;;;;;;;;;;;;4324122;33;19939;-76
2022/06/16 17:46:25;;;;;;;;;;;;;;;;;;4333186;33;19939;-77
2022/06/16 17:48:57;;;;;;;;;;;;;;;;;;4332896;33;20038;-78
2022/06/16 17:51:22;;;;;;;;;;;;;;;;;;4321258;33;20321;-77
2022/06/16 18:02:03;;;;;;;;;;;;;;;;;;4321315;33;19969;-77